createdAt,value
2019-04-14T00:02:06.080Z,4.80
2019-04-14T00:05:33.712Z,4.70
2019-04-14T00:08:56.502Z,4.60
2019-04-14T00:12:20.768Z,4.60
2019-04-14T00:15:47.005Z,4.50
2019-04-14T00:19:09.131Z,4.40
2019-04-14T00:22:33.332Z,4.40
2019-04-14T00:26:24.900Z,4.30
2019-04-14T00:29:48.027Z,4.30
2019-04-14T00:33:13.205Z,4.30
2019-04-14T00:36:54.589Z,4.20
2019-04-14T00:40:29.990Z,4.10
2019-04-14T00:44:14.649Z,4.10
2019-04-14T00:47:51.743Z,4.00
2019-04-14T00:51:06.964Z,4.00
2019-04-14T00:54:30.474Z,4.00
2019-04-14T00:57:55.134Z,3.70
2019-04-14T01:01:19.747Z,3.40
2019-04-14T01:04:42.823Z,3.20
2019-04-14T01:08:05.799Z,3.20
2019-04-14T01:11:29.163Z,3.40
2019-04-14T01:14:53.783Z,3.60
2019-04-14T01:18:21.135Z,3.70
2019-04-14T01:21:44.331Z,3.80
2019-04-14T01:25:08.588Z,3.80
2019-04-14T01:28:32.970Z,3.80
2019-04-14T01:31:56.203Z,3.60
2019-04-14T01:35:20.287Z,3.50
2019-04-14T01:38:43.413Z,3.40
2019-04-14T01:42:07.124Z,3.40
2019-04-14T01:45:31.647Z,3.40
2019-04-14T01:48:54.800Z,3.50
2019-04-14T01:52:41.945Z,3.60
2019-04-14T01:56:12.336Z,3.60
2019-04-14T01:59:35.463Z,3.50
2019-04-14T02:02:59.714Z,3.50
2019-04-14T02:06:22.909Z,3.40
2019-04-14T02:09:49.507Z,3.40
2019-04-14T02:13:13.553Z,3.50
2019-04-14T02:16:41.963Z,3.50
2019-04-14T02:20:03.209Z,3.60
2019-04-14T02:23:27.901Z,3.60
2019-04-14T02:26:50.989Z,3.40
2019-04-14T02:30:19.577Z,3.10
2019-04-14T02:34:00.801Z,2.90
2019-04-14T02:41:07.351Z,2.60
2019-04-14T02:44:27.017Z,2.60
2019-04-14T02:51:12.491Z,2.90
2019-04-14T02:54:48.057Z,3.00
2019-04-14T02:58:01.671Z,3.10
2019-04-14T03:01:32.863Z,3.00
2019-04-14T03:04:54.405Z,2.90
2019-04-14T03:08:16.994Z,2.80
2019-04-14T03:11:44.425Z,2.80
2019-04-14T03:18:52.424Z,3.00
2019-04-14T03:22:43.815Z,3.00
2019-04-14T03:26:29.456Z,3.00
2019-04-14T03:30:30.258Z,2.80
2019-04-14T03:37:31.059Z,2.90
2019-04-14T03:40:28.046Z,3.00
2019-04-14T03:44:01.267Z,3.10
2019-04-14T03:50:45.970Z,2.90
2019-04-14T03:54:01.669Z,2.80
2019-04-14T03:57:04.391Z,2.80
2019-04-14T04:00:27.432Z,2.80
2019-04-14T04:03:50.416Z,2.80
2019-04-14T04:07:13.444Z,2.70
2019-04-14T04:10:37.908Z,2.70
2019-04-14T04:14:01.306Z,2.60
2019-04-14T04:18:04.782Z,2.50
2019-04-14T04:21:48.703Z,2.50
2019-04-14T04:25:18.268Z,2.50
2019-04-14T04:29:01.003Z,2.40
2019-04-14T04:32:32.654Z,2.40
2019-04-14T04:35:59.341Z,2.40
2019-04-14T04:39:34.631Z,2.40
2019-04-14T04:42:57.000Z,2.30
2019-04-14T04:46:20.358Z,2.30
2019-04-14T04:49:44.614Z,2.50
2019-04-14T04:53:08.978Z,2.60
2019-04-14T04:56:32.148Z,2.60
2019-04-14T04:59:56.234Z,2.70
2019-04-14T05:03:19.349Z,2.90
2019-04-14T05:06:57.223Z,3.10
2019-04-14T05:10:35.001Z,3.30
2019-04-14T05:14:00.069Z,3.40
2019-04-14T05:17:23.801Z,3.40
2019-04-14T05:20:49.181Z,3.40
2019-04-14T05:24:13.538Z,3.40
2019-04-14T05:27:36.808Z,3.30
2019-04-14T05:31:01.103Z,3.40
2019-04-14T05:34:26.080Z,3.40
2019-04-14T05:37:49.230Z,3.50
2019-04-14T05:41:13.581Z,3.60
2019-04-14T05:44:36.884Z,3.70
2019-04-14T05:48:00.988Z,3.70
2019-04-14T05:51:26.298Z,3.70
2019-04-14T05:54:49.716Z,3.70
2019-04-14T05:58:12.692Z,3.70
2019-04-14T06:01:36.590Z,3.70
2019-04-14T06:05:00.457Z,3.80
2019-04-14T06:08:24.501Z,3.90
2019-04-14T06:11:50.701Z,4.10
2019-04-14T06:15:14.250Z,4.30
2019-04-14T06:18:37.309Z,4.40
2019-04-14T06:22:00.327Z,4.50
2019-04-14T06:25:23.355Z,4.60
2019-04-14T06:28:48.579Z,4.70
2019-04-14T06:32:34.204Z,4.70
2019-04-14T06:36:19.056Z,4.80
2019-04-14T06:39:44.772Z,4.90
2019-04-14T06:43:08.268Z,5.10
2019-04-14T06:46:31.409Z,5.20
2019-04-14T06:49:54.458Z,5.30
2019-04-14T06:53:18.136Z,5.30
2019-04-14T06:56:41.425Z,5.30
2019-04-14T07:00:04.762Z,5.30
2019-04-14T07:03:28.613Z,5.30
2019-04-14T07:06:51.886Z,5.20
2019-04-14T07:10:14.860Z,5.30
2019-04-14T07:13:40.113Z,5.40
2019-04-14T07:17:04.142Z,5.40
2019-04-14T07:20:27.126Z,5.30
2019-04-14T07:23:50.216Z,5.30
2019-04-14T07:27:13.230Z,5.50
2019-04-14T07:31:01.202Z,5.60
2019-04-14T07:34:41.108Z,5.80
2019-04-14T07:38:24.657Z,6.00
2019-04-14T07:41:53.841Z,6.20
2019-04-14T07:45:26.984Z,6.30
2019-04-14T07:48:55.528Z,6.50
2019-04-14T07:52:37.110Z,6.50
2019-04-14T07:56:14.098Z,6.50
2019-04-14T07:59:52.556Z,6.50
2019-04-14T08:03:32.652Z,6.60
2019-04-14T08:06:57.844Z,6.60
2019-04-14T08:10:20.907Z,6.70
2019-04-14T08:13:44.007Z,6.70
2019-04-14T08:17:07.184Z,6.90
2019-04-14T08:20:30.522Z,7.10
2019-04-14T08:23:53.581Z,7.20
2019-04-14T08:27:16.674Z,7.30
2019-04-14T08:30:39.719Z,7.50
2019-04-14T08:34:02.884Z,7.60
2019-04-14T08:37:25.906Z,7.80
2019-04-14T08:40:49.816Z,8.00
2019-04-14T08:44:27.409Z,8.10
2019-04-14T08:47:59.828Z,8.30
2019-04-14T08:51:48.495Z,8.40
2019-04-14T08:55:21.266Z,8.50
2019-04-14T08:59:03.920Z,8.60
2019-04-14T09:02:56.731Z,8.70
2019-04-14T09:06:35.135Z,8.80
2019-04-14T09:10:14.323Z,9.10
2019-04-14T09:13:37.506Z,9.40
2019-04-14T09:17:01.394Z,9.50
2019-04-14T09:20:24.493Z,9.60
2019-04-14T09:23:48.068Z,9.60
2019-04-14T09:27:11.073Z,9.80
2019-04-14T09:30:34.045Z,10.10
2019-04-14T09:34:00.158Z,10.40
2019-04-14T09:37:23.274Z,10.70
2019-04-14T09:40:46.435Z,10.90
2019-04-14T09:44:09.493Z,11.20
2019-04-14T09:47:32.634Z,11.40
2019-04-14T09:51:04.784Z,11.60
2019-04-14T09:54:22.893Z,12.10
2019-04-14T09:57:45.995Z,12.70
2019-04-14T10:01:09.241Z,14.30
2019-04-14T10:04:32.625Z,15.70
2019-04-14T10:07:55.682Z,16.50
2019-04-14T10:11:21.116Z,17.10
2019-04-14T10:14:44.269Z,17.80
2019-04-14T10:18:07.725Z,17.80
2019-04-14T10:21:30.895Z,18.30
2019-04-14T10:24:54.364Z,18.90
2019-04-14T10:28:17.652Z,19.70
2019-04-14T10:31:40.959Z,19.50
2019-04-14T10:35:04.276Z,19.60
2019-04-14T10:38:30.491Z,19.10
2019-04-14T10:41:54.220Z,18.70
2019-04-14T10:45:18.502Z,18.30
2019-04-14T10:48:41.573Z,18.30
2019-04-14T10:52:04.877Z,18.60
2019-04-14T10:55:30.953Z,18.70
2019-04-14T10:58:54.098Z,18.90
2019-04-14T11:02:17.161Z,18.90
2019-04-14T11:05:49.251Z,19.20
2019-04-14T11:09:16.048Z,19.60
2019-04-14T11:12:39.095Z,20.80
2019-04-14T11:16:02.214Z,22.00
2019-04-14T11:19:25.359Z,23.20
2019-04-14T11:22:49.473Z,23.90
2019-04-14T11:26:12.576Z,24.80
2019-04-14T11:29:35.788Z,24.50
2019-04-14T11:33:17.061Z,25.00
2019-04-14T11:36:49.708Z,25.40
2019-04-14T11:40:15.624Z,25.60
2019-04-14T11:43:38.779Z,26.00
2019-04-14T11:47:02.919Z,26.70
2019-04-14T11:50:28.466Z,27.20
2019-04-14T11:53:51.513Z,27.80
2019-04-14T11:57:14.668Z,27.70
2019-04-14T12:00:57.732Z,28.10
2019-04-14T12:04:27.774Z,28.00
2019-04-14T12:08:01.029Z,28.40
2019-04-14T12:11:24.183Z,27.80
2019-04-14T12:14:47.282Z,27.20
2019-04-14T12:18:10.390Z,27.90
2019-04-14T12:21:33.437Z,28.80
2019-04-14T12:24:58.915Z,29.40
2019-04-14T12:28:22.010Z,30.00
2019-04-14T12:31:46.485Z,30.00
2019-04-14T12:35:10.503Z,29.60
2019-04-14T12:38:33.685Z,29.60
2019-04-14T12:42:26.680Z,29.60
2019-04-14T12:46:08.294Z,29.70
2019-04-14T12:49:36.284Z,29.80
2019-04-14T12:52:59.305Z,30.40
2019-04-14T12:56:25.010Z,30.40
2019-04-14T12:59:48.423Z,31.00
2019-04-14T13:03:11.435Z,30.40
2019-04-14T13:06:34.600Z,30.10
2019-04-14T13:09:58.965Z,30.50
2019-04-14T13:13:21.981Z,31.30
2019-04-14T13:16:46.138Z,31.40
2019-04-14T13:20:09.526Z,32.50
2019-04-14T13:23:32.707Z,31.60
2019-04-14T13:26:55.876Z,30.60
2019-04-14T13:30:27.097Z,31.60
2019-04-14T13:33:50.201Z,31.00
2019-04-14T13:37:13.552Z,29.80
2019-04-14T13:40:36.562Z,26.70
2019-04-14T13:43:59.872Z,26.60
2019-04-14T13:47:22.871Z,28.50
2019-04-14T13:50:46.191Z,28.80
2019-04-14T13:54:09.236Z,27.40
2019-04-14T13:57:32.298Z,28.10
2019-04-14T14:00:55.397Z,27.80
2019-04-14T14:04:18.773Z,28.80
2019-04-14T14:07:41.847Z,30.00
2019-04-14T14:11:42.760Z,30.70
2019-04-14T14:15:25.337Z,30.80
2019-04-14T14:19:04.804Z,31.00
2019-04-14T14:22:59.276Z,32.20
2019-04-14T14:26:19.328Z,32.30
2019-04-14T14:29:42.407Z,32.90
2019-04-14T14:33:05.637Z,32.70
2019-04-14T14:36:29.076Z,32.60
2019-04-14T14:39:53.146Z,31.30
2019-04-14T14:43:16.234Z,31.40
2019-04-14T14:46:45.409Z,31.30
2019-04-14T14:50:17.667Z,31.70
2019-04-14T14:53:40.857Z,31.90
2019-04-14T14:57:04.105Z,30.80
2019-04-14T15:00:30.329Z,27.30
2019-04-14T15:03:53.429Z,24.30
2019-04-14T15:07:16.784Z,24.60
2019-04-14T15:10:39.808Z,27.10
2019-04-14T15:14:03.660Z,29.00
2019-04-14T15:17:29.860Z,29.60
2019-04-14T15:20:52.888Z,29.20
2019-04-14T15:24:15.920Z,29.30
2019-04-14T15:27:39.128Z,30.10
2019-04-14T15:31:02.338Z,30.50
2019-04-14T15:34:28.994Z,30.00
2019-04-14T15:37:52.250Z,29.80
2019-04-14T15:41:15.430Z,26.50
2019-04-14T15:44:38.574Z,23.60
2019-04-14T15:48:01.687Z,21.60
2019-04-14T15:51:29.312Z,23.70
2019-04-14T15:54:52.663Z,25.50
2019-04-14T15:58:24.645Z,23.70
2019-04-14T16:02:09.936Z,21.40
2019-04-14T16:05:48.587Z,19.40
2019-04-14T16:09:49.559Z,18.10
2019-04-14T16:13:28.980Z,19.60
2019-04-14T16:17:10.219Z,23.80
2019-04-14T16:20:35.710Z,25.80
2019-04-14T16:23:59.043Z,24.10
2019-04-14T16:27:57.098Z,21.20
2019-04-14T16:31:38.340Z,19.10
2019-04-14T16:35:08.942Z,17.60
2019-04-14T16:38:32.829Z,16.60
2019-04-14T16:41:57.761Z,16.10
2019-04-14T16:45:22.759Z,15.70
2019-04-14T16:48:46.279Z,15.30
2019-04-14T16:52:27.742Z,14.80
2019-04-14T16:56:17.972Z,14.40
2019-04-14T16:59:51.841Z,13.90
2019-04-14T17:03:14.898Z,13.60
2019-04-14T17:06:37.927Z,13.40
2019-04-14T17:10:01.081Z,13.20
2019-04-14T17:13:29.481Z,13.20
2019-04-14T17:17:10.671Z,13.30
2019-04-14T17:21:02.029Z,13.30
2019-04-14T17:24:38.892Z,13.20
2019-04-14T17:28:21.482Z,13.00
2019-04-14T17:32:06.640Z,12.80
2019-04-14T17:35:49.356Z,12.60
2019-04-14T17:39:25.527Z,12.30
2019-04-14T17:43:05.299Z,12.20
2019-04-14T17:47:00.179Z,12.00
2019-04-14T17:50:39.985Z,12.00
2019-04-14T17:54:03.238Z,11.90
2019-04-14T17:57:44.946Z,11.60
2019-04-14T18:01:42.804Z,11.50
2019-04-14T18:05:14.980Z,11.40
2019-04-14T18:09:01.446Z,11.30
2019-04-14T18:12:36.028Z,11.30
2019-04-14T18:16:21.590Z,11.20
2019-04-14T18:19:59.743Z,11.10
2019-04-14T18:23:22.877Z,11.10
2019-04-14T18:26:45.942Z,10.90
2019-04-14T18:30:18.264Z,10.80
2019-04-14T18:34:12.417Z,10.90
2019-04-14T18:38:06.093Z,10.80
2019-04-14T18:41:39.409Z,10.80
2019-04-14T18:45:15.059Z,10.80
2019-04-14T18:48:57.851Z,10.80
2019-04-14T18:52:38.744Z,10.70
2019-04-14T18:56:19.392Z,10.70
2019-04-14T19:00:20.756Z,10.60
2019-04-14T19:03:44.209Z,10.60
2019-04-14T19:07:07.453Z,10.60
2019-04-14T19:10:30.973Z,10.50
2019-04-14T19:13:55.370Z,10.50
2019-04-14T19:17:27.780Z,10.40
2019-04-14T19:20:55.821Z,10.40
2019-04-14T19:24:23.084Z,10.30
2019-04-14T19:27:46.289Z,10.20
2019-04-14T19:31:09.747Z,10.10
2019-04-14T19:34:33.062Z,10.10
2019-04-14T19:37:58.871Z,10.00
2019-04-14T19:41:30.147Z,10.00
2019-04-14T19:44:50.105Z,10.00
2019-04-14T19:48:18.065Z,10.00
2019-04-14T19:51:41.211Z,10.00
2019-04-14T19:55:04.644Z,10.00
2019-04-14T19:58:29.974Z,9.90
2019-04-14T20:01:53.199Z,9.90
2019-04-14T20:05:16.406Z,9.90
2019-04-14T20:08:39.623Z,9.80
2019-04-14T20:12:04.186Z,9.80
2019-04-14T20:15:33.797Z,9.80
2019-04-14T20:19:11.027Z,9.80
2019-04-14T20:23:08.935Z,9.80
2019-04-14T20:26:50.584Z,9.80
2019-04-14T20:30:22.267Z,9.70
2019-04-14T20:33:45.437Z,9.70
2019-04-14T20:37:09.414Z,9.60
2019-04-14T20:40:32.452Z,9.60
2019-04-14T20:44:01.885Z,9.60
2019-04-14T20:47:31.306Z,9.40
2019-04-14T20:50:54.397Z,9.30
2019-04-14T20:54:17.835Z,9.20
2019-04-14T20:57:41.718Z,9.00
2019-04-14T21:01:09.734Z,8.90
2019-04-14T21:04:49.850Z,8.70
2019-04-14T21:08:42.286Z,8.50
2019-04-14T21:12:29.566Z,8.20
2019-04-14T21:16:12.490Z,8.00
2019-04-14T21:19:47.825Z,7.90
2019-04-14T21:23:36.260Z,7.70
2019-04-14T21:27:07.672Z,7.60
2019-04-14T21:30:41.176Z,7.50
2019-04-14T21:34:14.371Z,7.30
2019-04-14T21:38:06.303Z,7.20
2019-04-14T21:41:30.034Z,7.10
2019-04-14T21:44:53.094Z,7.10
2019-04-14T21:48:16.181Z,7.00
2019-04-14T21:52:03.400Z,7.00
2019-04-14T21:55:29.790Z,7.00
2019-04-14T21:59:12.628Z,6.90
2019-04-14T22:02:54.075Z,6.80
2019-04-14T22:06:23.177Z,6.90
2019-04-14T22:09:46.893Z,7.00
2019-04-14T22:13:10.198Z,7.10
2019-04-14T22:16:33.399Z,7.20
2019-04-14T22:19:59.761Z,7.30
2019-04-14T22:23:25.072Z,7.50
2019-04-14T22:26:48.343Z,7.60
2019-04-14T22:30:11.973Z,7.70
2019-04-14T22:33:35.556Z,7.80
2019-04-14T22:36:58.787Z,7.80
2019-04-14T22:40:21.877Z,7.80
2019-04-14T22:43:45.171Z,7.80
2019-04-14T22:47:08.606Z,7.80
2019-04-14T22:50:31.572Z,7.70
2019-04-14T22:53:54.814Z,7.70
2019-04-14T22:57:18.341Z,7.60
2019-04-14T23:00:49.526Z,7.50
2019-04-14T23:04:34.590Z,7.30
2019-04-14T23:08:09.350Z,7.20
2019-04-14T23:11:55.043Z,7.10
2019-04-14T23:15:35.176Z,7.00
2019-04-14T23:19:13.007Z,7.00
2019-04-14T23:22:54.705Z,7.00
2019-04-14T23:26:18.653Z,7.10
2019-04-14T23:29:42.063Z,7.20
2019-04-14T23:33:05.307Z,7.30
2019-04-14T23:36:31.248Z,7.30
2019-04-14T23:39:54.624Z,7.40
2019-04-14T23:43:18.013Z,7.50
2019-04-14T23:46:41.523Z,7.50
2019-04-14T23:50:04.962Z,7.50
2019-04-14T23:53:29.659Z,7.40
2019-04-14T23:57:04.880Z,7.40
